createdAt,value
2023-04-11T00:02:07.090Z,26.90
2023-04-11T00:04:42.032Z,26.50
2023-04-11T00:07:16.099Z,25.90
2023-04-11T00:09:50.678Z,24.33
2023-04-11T00:12:22.637Z,24.53
2023-04-11T00:14:53.810Z,24.60
2023-04-11T00:17:24.260Z,27.27
2023-04-11T00:19:54.206Z,24.27
2023-04-11T00:22:27.690Z,25.70
2023-04-11T00:25:00.084Z,25.87
2023-04-11T00:27:30.620Z,22.77
2023-04-11T00:30:01.480Z,24.20
2023-04-11T00:32:40.667Z,25.93
2023-04-11T00:35:17.696Z,21.27
2023-04-11T00:37:51.372Z,25.30
2023-04-11T00:40:24.258Z,24.50
2023-04-11T00:42:55.572Z,25.90
2023-04-11T00:45:26.664Z,25.63
2023-04-11T00:47:58.513Z,23.50
2023-04-11T00:50:32.925Z,24.93
2023-04-11T00:53:07.176Z,25.83
2023-04-11T00:55:37.138Z,21.50
2023-04-11T00:58:12.505Z,24.87
2023-04-11T01:00:41.662Z,19.80
2023-04-11T01:03:15.994Z,23.87
2023-04-11T01:05:46.380Z,26.03
2023-04-11T01:08:17.581Z,20.20
2023-04-11T01:10:48.060Z,24.13
2023-04-11T01:13:20.247Z,23.30
2023-04-11T01:15:48.785Z,24.47
2023-04-11T01:18:20.750Z,25.23
2023-04-11T01:20:54.312Z,22.37
2023-04-11T01:23:38.924Z,27.83
2023-04-11T01:26:09.999Z,24.50
2023-04-11T01:28:39.751Z,27.57
2023-04-11T01:31:08.582Z,22.70
2023-04-11T01:33:43.227Z,22.47
2023-04-11T01:36:12.561Z,23.87
2023-04-11T01:38:47.460Z,22.63
2023-04-11T01:41:18.750Z,24.03
2023-04-11T01:43:47.055Z,23.33
2023-04-11T01:46:17.757Z,20.53
2023-04-11T01:48:49.793Z,22.93
2023-04-11T01:51:20.807Z,25.83
2023-04-11T01:53:57.570Z,22.20
2023-04-11T01:56:26.454Z,23.67
2023-04-11T01:58:59.549Z,24.43
2023-04-11T02:01:35.901Z,28.03
2023-04-11T02:04:05.918Z,23.90
2023-04-11T02:06:34.905Z,22.00
2023-04-11T02:09:20.613Z,24.53
2023-04-11T02:11:50.548Z,20.70
2023-04-11T02:14:30.110Z,22.17
2023-04-11T02:17:04.378Z,25.03
2023-04-11T02:19:34.670Z,25.67
2023-04-11T02:22:03.484Z,22.23
2023-04-11T02:24:40.124Z,24.47
2023-04-11T02:27:08.888Z,22.43
2023-04-11T02:29:38.372Z,26.30
2023-04-11T02:32:07.220Z,25.60
2023-04-11T02:34:39.055Z,24.27
2023-04-11T02:37:08.605Z,20.43
2023-04-11T02:39:43.994Z,26.33
2023-04-11T02:42:13.991Z,22.97
2023-04-11T02:44:46.080Z,25.80
2023-04-11T02:47:17.611Z,22.67
2023-04-11T02:50:00.446Z,23.60
2023-04-11T02:52:37.770Z,20.07
2023-04-11T02:55:12.300Z,21.30
2023-04-11T02:57:40.432Z,22.87
2023-04-11T03:00:22.677Z,24.03
2023-04-11T03:03:00.139Z,23.90
2023-04-11T03:05:34.065Z,25.00
2023-04-11T03:08:06.085Z,22.63
2023-04-11T03:10:38.606Z,25.43
2023-04-11T03:13:11.356Z,22.17
2023-04-11T03:15:42.620Z,23.23
2023-04-11T03:18:14.535Z,23.60
2023-04-11T03:20:45.739Z,23.80
2023-04-11T03:23:19.802Z,24.37
2023-04-11T03:25:51.003Z,23.33
2023-04-11T03:28:23.845Z,24.13
2023-04-11T03:30:53.070Z,24.10
2023-04-11T03:33:34.159Z,25.17
2023-04-11T03:36:06.004Z,23.20
2023-04-11T03:38:36.818Z,24.10
2023-04-11T03:41:09.385Z,23.70
2023-04-11T03:43:41.202Z,23.80
2023-04-11T03:46:11.931Z,24.73
2023-04-11T03:48:47.535Z,21.77
2023-04-11T03:51:21.252Z,24.70
2023-04-11T03:53:57.786Z,22.97
2023-04-11T03:56:41.787Z,22.53
2023-04-11T03:59:21.386Z,23.33
2023-04-11T04:02:14.977Z,28.00
2023-04-11T04:04:57.512Z,22.50
2023-04-11T04:07:33.033Z,24.70
2023-04-11T04:10:12.314Z,22.53
2023-04-11T04:12:44.958Z,22.83
2023-04-11T04:15:27.746Z,22.67
2023-04-11T04:17:57.003Z,26.57
2023-04-11T04:20:45.109Z,22.40
2023-04-11T04:23:20.384Z,24.97
2023-04-11T04:26:04.255Z,24.83
2023-04-11T04:28:38.515Z,28.80
2023-04-11T04:31:09.551Z,23.40
2023-04-11T04:33:44.153Z,24.07
2023-04-11T04:36:31.276Z,22.60
2023-04-11T04:39:02.193Z,24.77
2023-04-11T04:41:40.254Z,31.30
2023-04-11T04:44:10.594Z,26.40
2023-04-11T04:46:46.397Z,26.03
2023-04-11T04:49:15.688Z,25.03
2023-04-11T04:51:47.878Z,29.40
2023-04-11T04:54:32.229Z,24.77
2023-04-11T04:57:05.036Z,24.63
2023-04-11T04:59:47.621Z,27.67
2023-04-11T05:02:18.356Z,26.50
2023-04-11T05:04:50.876Z,25.53
2023-04-11T05:07:21.070Z,27.93
2023-04-11T05:09:55.255Z,24.63
2023-04-11T05:12:30.459Z,27.10
2023-04-11T05:15:19.032Z,23.70
2023-04-11T05:17:49.795Z,30.97
2023-04-11T05:20:21.949Z,28.87
2023-04-11T05:22:55.821Z,24.10
2023-04-11T05:25:26.185Z,26.70
2023-04-11T05:27:57.968Z,25.00
2023-04-11T05:30:41.609Z,27.33
2023-04-11T05:33:12.969Z,25.90
2023-04-11T05:35:44.390Z,33.33
2023-04-11T05:38:13.913Z,27.03
2023-04-11T05:40:43.001Z,27.03
2023-04-11T05:43:15.627Z,24.10
2023-04-11T05:45:48.009Z,28.23
2023-04-11T05:48:20.246Z,25.47
2023-04-11T05:50:51.464Z,28.07
2023-04-11T05:53:23.471Z,26.03
2023-04-11T05:55:53.172Z,25.80
2023-04-11T05:58:35.147Z,28.50
2023-04-11T06:01:14.708Z,25.20
2023-04-11T06:03:44.563Z,26.03
2023-04-11T06:06:15.858Z,27.60
2023-04-11T06:08:44.935Z,30.53
2023-04-11T06:11:16.119Z,25.53
2023-04-11T06:13:45.772Z,29.50
2023-04-11T06:16:26.327Z,23.83
2023-04-11T06:18:55.732Z,24.53
2023-04-11T06:21:24.728Z,24.40
2023-04-11T06:23:54.716Z,24.87
2023-04-11T06:26:26.069Z,30.70
2023-04-11T06:28:58.781Z,24.00
2023-04-11T06:31:34.148Z,30.50
2023-04-11T06:34:07.036Z,25.07
2023-04-11T06:36:37.416Z,27.67
2023-04-11T06:39:09.850Z,25.67
2023-04-11T06:41:50.197Z,21.40
2023-04-11T06:44:29.293Z,29.67
2023-04-11T06:47:01.574Z,30.07
2023-04-11T06:49:31.375Z,25.20
2023-04-11T06:52:03.543Z,24.30
2023-04-11T06:54:35.211Z,24.40
2023-04-11T06:57:06.303Z,36.47
2023-04-11T06:59:35.934Z,24.97
2023-04-11T07:02:11.036Z,28.27
2023-04-11T07:04:43.333Z,25.67
2023-04-11T07:07:11.461Z,30.77
2023-04-11T07:09:46.051Z,27.90
2023-04-11T07:12:23.503Z,29.33
2023-04-11T07:14:54.544Z,28.37
2023-04-11T07:17:24.348Z,24.77
2023-04-11T07:19:56.022Z,26.00
2023-04-11T07:22:31.335Z,27.03
2023-04-11T07:25:02.861Z,22.53
2023-04-11T07:27:32.193Z,28.50
2023-04-11T07:30:02.142Z,27.93
2023-04-11T07:32:37.106Z,23.93
2023-04-11T07:35:19.494Z,27.23
2023-04-11T07:37:47.874Z,25.67
2023-04-11T07:40:17.966Z,22.50
2023-04-11T07:42:49.821Z,26.23
2023-04-11T07:45:20.713Z,27.43
2023-04-11T07:47:58.066Z,26.03
2023-04-11T07:50:26.266Z,22.63
2023-04-11T07:52:57.126Z,24.13
2023-04-11T07:55:34.533Z,24.47
2023-04-11T07:58:04.891Z,24.23
2023-04-11T08:00:34.781Z,24.10
2023-04-11T08:03:08.120Z,25.90
2023-04-11T08:05:40.712Z,22.23
2023-04-11T08:08:12.483Z,25.47
2023-04-11T08:10:43.139Z,23.20
2023-04-11T08:13:12.392Z,28.97
2023-04-11T08:15:44.213Z,23.23
2023-04-11T08:18:17.142Z,23.50
2023-04-11T08:20:49.000Z,24.63
2023-04-11T08:23:20.669Z,30.90
2023-04-11T08:25:50.994Z,25.00
2023-04-11T08:28:29.780Z,24.53
2023-04-11T08:31:04.253Z,27.00
2023-04-11T08:33:40.213Z,30.83
2023-04-11T08:36:11.234Z,22.23
2023-04-11T08:38:49.517Z,24.30
2023-04-11T08:41:21.653Z,27.73
2023-04-11T08:43:57.656Z,29.83
2023-04-11T08:46:26.909Z,30.23
2023-04-11T08:49:00.342Z,23.00
2023-04-11T08:51:29.564Z,31.40
2023-04-11T08:53:59.741Z,32.43
2023-04-11T08:56:34.094Z,37.50
2023-04-11T08:59:05.691Z,52.53
2023-04-11T09:01:43.137Z,43.00
2023-04-11T09:04:41.681Z,35.23
2023-04-11T09:07:12.956Z,33.23
2023-04-11T09:09:46.759Z,29.10
2023-04-11T09:12:16.238Z,43.60
2023-04-11T09:14:45.167Z,67.50
2023-04-11T09:17:17.083Z,37.70
2023-04-11T09:19:49.151Z,28.17
2023-04-11T09:22:21.780Z,25.67
2023-04-11T09:25:03.790Z,24.53
2023-04-11T09:27:34.626Z,23.63
2023-04-11T09:30:05.907Z,18.87
2023-04-11T09:32:36.509Z,43.20
2023-04-11T09:35:19.649Z,20.63
2023-04-11T09:37:51.440Z,17.70
2023-04-11T09:40:24.380Z,9.90
2023-04-11T09:42:58.879Z,8.07
2023-04-11T09:45:28.431Z,8.33
2023-04-11T09:47:58.484Z,8.73
2023-04-11T09:50:32.178Z,11.90
2023-04-11T09:53:04.947Z,5.20
2023-04-11T09:55:37.218Z,13.30
2023-04-11T09:58:07.229Z,10.40
2023-04-11T10:00:39.204Z,5.97
2023-04-11T10:03:14.976Z,4.57
2023-04-11T10:05:51.589Z,4.57
2023-04-11T10:08:28.387Z,5.07
2023-04-11T10:11:05.241Z,4.17
2023-04-11T10:13:50.739Z,4.80
2023-04-11T10:16:24.720Z,6.13
2023-04-11T10:19:25.998Z,5.83
2023-04-11T10:22:00.185Z,9.07
2023-04-11T10:24:29.322Z,8.80
2023-04-11T10:27:03.764Z,6.13
2023-04-11T10:30:05.330Z,8.40
2023-04-11T10:32:43.707Z,7.00
2023-04-11T10:35:34.554Z,9.93
2023-04-11T10:38:54.656Z,15.37
2023-04-11T10:41:31.986Z,16.53
2023-04-11T10:44:21.169Z,19.37
2023-04-11T10:46:55.819Z,20.03
2023-04-11T10:49:39.912Z,20.37
2023-04-11T10:52:23.454Z,18.63
2023-04-11T10:55:19.978Z,20.50
2023-04-11T10:58:18.352Z,21.80
2023-04-11T11:01:42.740Z,25.10
2023-04-11T11:04:23.244Z,20.50
2023-04-11T11:07:04.889Z,21.17
2023-04-11T11:09:43.118Z,27.23
2023-04-11T11:12:34.530Z,24.73
2023-04-11T11:15:17.559Z,21.30
2023-04-11T11:17:48.166Z,20.43
2023-04-11T11:20:23.114Z,20.13
2023-04-11T11:23:17.291Z,22.60
2023-04-11T11:25:55.080Z,22.30
2023-04-11T11:28:50.494Z,18.60
2023-04-11T11:31:22.932Z,19.60
2023-04-11T11:34:04.773Z,23.13
2023-04-11T11:36:48.803Z,21.03
2023-04-11T11:39:23.553Z,20.27
2023-04-11T11:41:55.501Z,22.83
2023-04-11T11:44:32.597Z,19.60
2023-04-11T11:47:09.235Z,22.23
2023-04-11T11:49:49.248Z,25.93
2023-04-11T11:52:33.903Z,30.10
2023-04-11T11:58:05.139Z,24.00
2023-04-11T12:00:45.003Z,28.47
2023-04-11T12:03:16.836Z,30.80
2023-04-11T12:05:51.163Z,22.90
2023-04-11T12:08:22.306Z,25.40
2023-04-11T12:10:56.824Z,22.57
2023-04-11T12:13:30.718Z,13.40
2023-04-11T12:16:02.814Z,10.53
2023-04-11T12:18:33.283Z,10.27
2023-04-11T12:21:09.497Z,10.37
2023-04-11T12:23:38.196Z,14.67
2023-04-11T12:26:07.860Z,10.90
2023-04-11T12:28:38.123Z,10.30
2023-04-11T12:31:14.832Z,9.10
2023-04-11T12:33:43.352Z,8.93
2023-04-11T12:36:18.393Z,9.20
2023-04-11T12:38:48.277Z,4.80
2023-04-11T12:41:32.236Z,6.03
2023-04-11T12:44:03.123Z,4.07
2023-04-11T12:46:38.805Z,2.50
2023-04-11T12:49:13.526Z,2.60
2023-04-11T12:51:43.240Z,1.50
2023-04-11T12:54:11.548Z,2.10
2023-04-11T12:56:51.584Z,2.10
2023-04-11T12:59:25.738Z,2.93
2023-04-11T13:01:57.736Z,4.27
2023-04-11T13:04:26.707Z,3.50
2023-04-11T13:07:02.419Z,2.10
2023-04-11T13:09:33.488Z,1.93
2023-04-11T13:12:11.022Z,2.23
2023-04-11T13:14:40.700Z,2.53
2023-04-11T13:17:11.511Z,2.40
2023-04-11T13:19:43.004Z,3.30
2023-04-11T13:22:11.186Z,3.33
2023-04-11T13:24:39.284Z,3.30
2023-04-11T13:27:09.196Z,2.80
2023-04-11T13:29:43.256Z,4.40
2023-04-11T13:32:21.058Z,1.93
2023-04-11T13:34:50.669Z,1.50
2023-04-11T13:37:19.769Z,2.07
2023-04-11T13:39:48.524Z,2.90
2023-04-11T13:42:21.851Z,3.80
2023-04-11T13:44:54.153Z,1.60
2023-04-11T13:47:31.377Z,1.80
2023-04-11T13:50:00.737Z,5.17
2023-04-11T13:52:29.411Z,2.30
2023-04-11T13:55:01.412Z,2.00
2023-04-11T13:57:32.501Z,1.90
2023-04-11T14:00:07.195Z,1.90
2023-04-11T14:02:38.230Z,1.80
2023-04-11T14:05:10.330Z,1.90
2023-04-11T14:08:14.587Z,2.20
2023-04-11T14:10:52.867Z,1.90
2023-04-11T14:13:31.558Z,2.87
2023-04-11T14:16:08.717Z,2.57
2023-04-11T14:18:40.464Z,4.50
2023-04-11T14:21:10.001Z,2.30
2023-04-11T14:23:39.090Z,2.03
2023-04-11T14:26:09.946Z,2.83
2023-04-11T14:28:42.235Z,2.93
2023-04-11T14:31:13.027Z,1.47
2023-04-11T14:33:55.684Z,1.47
2023-04-11T14:36:24.488Z,1.33
2023-04-11T14:39:01.044Z,1.33
2023-04-11T14:41:32.836Z,1.77
2023-04-11T14:44:05.347Z,1.67
2023-04-11T14:46:40.570Z,1.60
2023-04-11T14:49:15.266Z,2.80
2023-04-11T14:51:52.638Z,2.30
2023-04-11T14:54:29.900Z,3.97
2023-04-11T14:57:03.859Z,3.43
2023-04-11T14:59:35.900Z,4.60
2023-04-11T15:02:07.133Z,3.53
2023-04-11T15:04:46.791Z,7.17
2023-04-11T15:07:17.906Z,4.10
2023-04-11T15:09:48.267Z,3.90
2023-04-11T15:12:17.277Z,3.90
2023-04-11T15:14:53.392Z,6.30
2023-04-11T15:17:23.293Z,3.30
2023-04-11T15:19:59.863Z,2.83
2023-04-11T15:22:32.865Z,2.50
2023-04-11T15:25:02.009Z,3.90
2023-04-11T15:27:40.783Z,7.53
2023-04-11T15:30:12.828Z,8.77
2023-04-11T15:32:52.861Z,6.07
2023-04-11T15:35:30.417Z,2.40
2023-04-11T15:38:02.529Z,2.17
2023-04-11T15:40:31.473Z,2.00
2023-04-11T15:43:10.290Z,2.17
2023-04-11T15:45:39.640Z,3.03
2023-04-11T15:48:16.069Z,2.60
2023-04-11T15:50:47.816Z,2.97
2023-04-11T15:53:22.665Z,2.20
2023-04-11T15:55:54.099Z,1.37
2023-04-11T15:58:25.542Z,1.50
2023-04-11T16:00:55.253Z,2.13
2023-04-11T16:03:31.697Z,1.67
2023-04-11T16:06:13.009Z,1.20
2023-04-11T16:08:51.942Z,1.87
2023-04-11T16:11:20.950Z,0.80
2023-04-11T16:13:57.574Z,1.77
2023-04-11T16:16:37.096Z,1.70
2023-04-11T16:19:14.277Z,0.80
2023-04-11T16:24:23.439Z,0.70
2023-04-11T16:26:56.950Z,0.80
2023-04-11T16:29:29.895Z,0.70
2023-04-11T16:32:01.349Z,1.20
2023-04-11T16:34:34.977Z,0.80
2023-04-11T16:37:07.834Z,1.27
2023-04-11T16:40:06.922Z,1.63
2023-04-11T16:42:35.617Z,1.07
2023-04-11T16:45:19.825Z,3.03
2023-04-11T16:47:50.688Z,2.07
2023-04-11T16:50:21.487Z,3.33
2023-04-11T16:52:55.038Z,4.13
2023-04-11T16:55:30.482Z,3.17
2023-04-11T16:58:03.726Z,2.57
2023-04-11T17:00:48.628Z,3.33
2023-04-11T17:03:22.586Z,2.63
2023-04-11T17:06:04.595Z,1.70
2023-04-11T17:08:45.154Z,1.50
2023-04-11T17:11:24.217Z,3.97
2023-04-11T17:13:56.125Z,1.90
2023-04-11T17:16:28.278Z,1.87
2023-04-11T17:19:00.242Z,3.33
2023-04-11T17:21:28.900Z,2.70
2023-04-11T17:24:15.994Z,2.30
2023-04-11T17:26:50.101Z,4.40
2023-04-11T17:29:27.670Z,2.77
2023-04-11T17:31:57.735Z,2.80
2023-04-11T17:34:26.905Z,3.67
2023-04-11T17:37:05.505Z,2.60
2023-04-11T17:39:49.520Z,1.67
2023-04-11T17:42:27.244Z,1.00
2023-04-11T17:45:16.193Z,1.37
2023-04-11T17:47:50.659Z,2.00
2023-04-11T17:50:21.271Z,1.13
2023-04-11T17:52:53.551Z,2.03
2023-04-11T17:55:28.327Z,1.90
2023-04-11T17:57:56.717Z,2.10
2023-04-11T18:00:48.448Z,2.73
2023-04-11T18:03:26.184Z,4.33
2023-04-11T18:06:01.193Z,1.13
2023-04-11T18:08:49.126Z,1.60
2023-04-11T18:11:23.999Z,2.03
2023-04-11T18:14:00.987Z,2.00
2023-04-11T18:16:33.386Z,2.50
2023-04-11T18:19:03.674Z,2.60
2023-04-11T18:21:35.568Z,2.20
2023-04-11T18:24:06.610Z,1.17
2023-04-11T18:26:41.913Z,2.50
2023-04-11T18:29:15.444Z,1.40
2023-04-11T18:32:00.385Z,2.67
2023-04-11T18:34:31.084Z,2.13
2023-04-11T18:37:06.783Z,3.57
2023-04-11T18:39:44.222Z,1.43
2023-04-11T18:42:34.679Z,6.83
2023-04-11T18:45:05.817Z,3.03
2023-04-11T18:47:37.620Z,4.30
2023-04-11T18:50:12.418Z,3.20
2023-04-11T18:52:45.259Z,2.00
2023-04-11T18:55:21.169Z,47.80
2023-04-11T18:57:58.251Z,2.40
2023-04-11T19:00:40.765Z,5.90
2023-04-11T19:06:01.014Z,17.70
2023-04-11T19:08:43.759Z,10.17
2023-04-11T19:11:25.835Z,5.23
2023-04-11T19:14:00.217Z,3.43
2023-04-11T19:16:34.797Z,4.50
2023-04-11T19:19:08.073Z,3.87
2023-04-11T19:21:41.248Z,12.57
2023-04-11T19:24:20.616Z,5.90
2023-04-11T19:27:08.081Z,15.33
2023-04-11T19:29:41.313Z,5.67
2023-04-11T19:32:24.557Z,16.97
2023-04-11T19:35:05.905Z,13.03
2023-04-11T19:37:42.599Z,6.87
2023-04-11T19:40:22.814Z,5.13
2023-04-11T19:43:00.188Z,4.10
2023-04-11T19:45:56.498Z,3.93
2023-04-11T19:48:36.108Z,2.90
2023-04-11T19:51:12.683Z,2.50
2023-04-11T19:53:46.575Z,2.00
2023-04-11T19:56:26.418Z,4.13
2023-04-11T19:58:58.266Z,5.33
2023-04-11T20:01:44.119Z,6.07
2023-04-11T20:04:28.725Z,6.90
2023-04-11T20:07:04.698Z,6.60
2023-04-11T20:09:37.035Z,3.17
2023-04-11T20:12:18.400Z,1.63
2023-04-11T20:14:49.686Z,3.57
2023-04-11T20:17:25.829Z,2.97
2023-04-11T20:20:03.463Z,1.87
2023-04-11T20:22:46.516Z,2.10
2023-04-11T20:25:24.140Z,1.90
2023-04-11T20:27:59.585Z,2.00
2023-04-11T20:30:37.133Z,1.50
2023-04-11T20:33:21.562Z,1.93
2023-04-11T20:36:06.682Z,1.10
2023-04-11T20:38:44.268Z,1.60
2023-04-11T20:41:12.571Z,4.13
2023-04-11T20:43:57.951Z,3.13
2023-04-11T20:46:30.051Z,2.90
2023-04-11T20:49:11.999Z,2.70
2023-04-11T20:51:52.266Z,4.00
2023-04-11T20:54:21.956Z,3.07
2023-04-11T20:56:52.781Z,1.90
2023-04-11T20:59:29.903Z,2.43
2023-04-11T21:02:01.765Z,2.03
2023-04-11T21:04:51.747Z,4.83
2023-04-11T21:07:28.513Z,1.50
2023-04-11T21:10:07.127Z,1.67
2023-04-11T21:12:37.494Z,1.80
2023-04-11T21:15:06.886Z,7.97
2023-04-11T21:17:41.166Z,2.13
2023-04-11T21:20:20.710Z,1.67
2023-04-11T21:22:52.943Z,1.63
2023-04-11T21:25:37.513Z,1.53
2023-04-11T21:28:09.135Z,1.57
2023-04-11T21:30:39.536Z,2.60
2023-04-11T21:33:12.134Z,2.20
2023-04-11T21:35:59.122Z,1.80
2023-04-11T21:38:28.060Z,1.53
2023-04-11T21:41:09.431Z,1.40
2023-04-11T21:43:37.902Z,4.00
2023-04-11T21:46:10.047Z,2.57
2023-04-11T21:48:43.249Z,1.60
2023-04-11T21:51:19.958Z,2.33
2023-04-11T21:53:53.012Z,1.93
2023-04-11T21:56:29.920Z,1.57
2023-04-11T21:58:59.332Z,1.90
2023-04-11T22:01:29.196Z,2.43
2023-04-11T22:04:00.598Z,2.00
2023-04-11T22:06:47.584Z,1.73
2023-04-11T22:09:20.989Z,2.83
2023-04-11T22:11:50.992Z,1.30
2023-04-11T22:14:27.992Z,1.60
2023-04-11T22:17:01.147Z,1.30
2023-04-11T22:19:34.816Z,1.83
2023-04-11T22:22:08.375Z,1.30
2023-04-11T22:24:47.069Z,1.63
2023-04-11T22:27:19.048Z,1.53
2023-04-11T22:29:52.640Z,1.37
2023-04-11T22:32:21.323Z,2.40
2023-04-11T22:34:59.696Z,1.40
2023-04-11T22:37:30.597Z,2.17
2023-04-11T22:40:01.071Z,2.40
2023-04-11T22:42:30.893Z,1.57
2023-04-11T22:44:58.951Z,1.90
2023-04-11T22:47:32.696Z,1.50
2023-04-11T22:50:03.853Z,1.60
2023-04-11T22:52:40.370Z,1.67
2023-04-11T22:55:15.612Z,2.40
2023-04-11T22:57:47.324Z,2.10
2023-04-11T23:00:24.635Z,3.30
2023-04-11T23:02:57.320Z,4.87
2023-04-11T23:05:30.727Z,1.30
2023-04-11T23:08:02.627Z,3.80
2023-04-11T23:10:30.829Z,2.27
2023-04-11T23:13:00.492Z,2.20
2023-04-11T23:15:32.689Z,3.63
2023-04-11T23:18:06.779Z,2.53
2023-04-11T23:20:40.621Z,2.17
2023-04-11T23:23:20.305Z,1.63
2023-04-11T23:25:50.852Z,4.93
2023-04-11T23:28:28.726Z,2.37
2023-04-11T23:30:58.833Z,2.47
2023-04-11T23:33:31.697Z,3.90
2023-04-11T23:36:04.971Z,2.23
2023-04-11T23:38:37.095Z,2.90
2023-04-11T23:41:07.231Z,1.70
2023-04-11T23:43:39.190Z,3.27
2023-04-11T23:46:16.114Z,3.70
2023-04-11T23:48:46.949Z,4.97
2023-04-11T23:51:18.380Z,1.73
2023-04-11T23:53:49.815Z,2.53
2023-04-11T23:56:21.121Z,3.10
2023-04-11T23:58:50.458Z,4.33
